Vicksburg, Mississippi
Current Conditions -  °F | °C
As of 10:55 AM on Thursday 30 Oct 2014 (Local Time) from KVKS Reporting Station
Clear Clear  
Wind Chill: 19°   Ceiling: Unl
Heat Index: 19°   Visibility: 10mi
Dew Point:   Wind: 7mph
Humidity: 46%   Direction: NA
Pressure: 30.17"   Gusts: NA
Location:  32.35°N, 90.88°W
Report Text: KVKS 301555Z AUTO VRB06KT 10SM CLR 19/07 A3017 RMK A01
Loading
Personal Weather Stations






























Interactive Weather Map New forecast layout! Learn more

10-Day Weather Forecast

Advertisements
Track Severe Weather on mobile